sensor_id;sensor_type;location;lat;lon;timestamp;pressure;altitude;pressure_sealevel;temperature;humidity
85304;BME280;75708;47.930;13.782;2024-03-02T00:02:14;95188.09;;;5.36;94.50
85304;BME280;75708;47.930;13.782;2024-03-02T00:04:40;95179.47;;;5.28;94.57
85304;BME280;75708;47.930;13.782;2024-03-02T00:07:06;95179.25;;;5.30;94.21
85304;BME280;75708;47.930;13.782;2024-03-02T00:09:32;95183.28;;;5.33;94.29
85304;BME280;75708;47.930;13.782;2024-03-02T00:11:59;95180.38;;;5.34;93.96
85304;BME280;75708;47.930;13.782;2024-03-02T00:14:25;95177.91;;;5.27;93.94
85304;BME280;75708;47.930;13.782;2024-03-02T00:16:51;95178.13;;;5.26;94.08
85304;BME280;75708;47.930;13.782;2024-03-02T00:19:17;95174.06;;;5.35;94.07
85304;BME280;75708;47.930;13.782;2024-03-02T00:21:43;95175.91;;;5.35;94.24
85304;BME280;75708;47.930;13.782;2024-03-02T00:24:21;95175.75;;;5.41;93.47
85304;BME280;75708;47.930;13.782;2024-03-02T00:26:47;95175.50;;;5.43;93.13
85304;BME280;75708;47.930;13.782;2024-03-02T00:29:15;95182.69;;;5.30;94.44
85304;BME280;75708;47.930;13.782;2024-03-02T00:31:44;95178.59;;;5.23;94.59
85304;BME280;75708;47.930;13.782;2024-03-02T00:34:12;95180.00;;;5.14;94.89
85304;BME280;75708;47.930;13.782;2024-03-02T00:36:39;95181.63;;;5.15;95.52
85304;BME280;75708;47.930;13.782;2024-03-02T00:39:05;95181.19;;;5.06;95.35
85304;BME280;75708;47.930;13.782;2024-03-02T00:41:33;95187.53;;;5.05;95.93
85304;BME280;75708;47.930;13.782;2024-03-02T00:44:06;95189.94;;;5.07;95.51
85304;BME280;75708;47.930;13.782;2024-03-02T00:46:35;95182.69;;;5.02;95.79
85304;BME280;75708;47.930;13.782;2024-03-02T00:49:03;95190.63;;;5.02;95.52
85304;BME280;75708;47.930;13.782;2024-03-02T00:51:33;95181.34;;;5.00;95.71
85304;BME280;75708;47.930;13.782;2024-03-02T00:54:01;95196.50;;;5.04;95.63
85304;BME280;75708;47.930;13.782;2024-03-02T00:56:29;95189.59;;;5.03;95.66
85304;BME280;75708;47.930;13.782;2024-03-02T00:58:55;95196.19;;;5.01;95.83
85304;BME280;75708;47.930;13.782;2024-03-02T01:01:20;95188.00;;;5.02;95.50
85304;BME280;75708;47.930;13.782;2024-03-02T01:03:46;95183.75;;;5.01;95.71
85304;BME280;75708;47.930;13.782;2024-03-02T01:06:12;95190.53;;;4.97;95.73
85304;BME280;75708;47.930;13.782;2024-03-02T01:08:39;95186.88;;;4.86;95.19
85304;BME280;75708;47.930;13.782;2024-03-02T01:11:05;95185.19;;;4.80;95.50
85304;BME280;75708;47.930;13.782;2024-03-02T01:13:31;95183.22;;;4.76;95.74
85304;BME280;75708;47.930;13.782;2024-03-02T01:15:57;95187.84;;;4.80;95.99
85304;BME280;75708;47.930;13.782;2024-03-02T01:18:23;95181.06;;;4.73;96.23
85304;BME280;75708;47.930;13.782;2024-03-02T01:20:49;95193.00;;;4.75;96.02
85304;BME280;75708;47.930;13.782;2024-03-02T01:23:21;95190.38;;;4.75;96.50
85304;BME280;75708;47.930;13.782;2024-03-02T01:25:47;95188.06;;;4.79;96.05
85304;BME280;75708;47.930;13.782;2024-03-02T01:28:13;95176.09;;;4.76;96.14
85304;BME280;75708;47.930;13.782;2024-03-02T01:30:39;95175.88;;;4.78;96.02
85304;BME280;75708;47.930;13.782;2024-03-02T01:33:04;95183.94;;;4.83;96.35
85304;BME280;75708;47.930;13.782;2024-03-02T01:35:31;95172.44;;;4.77;96.50
85304;BME280;75708;47.930;13.782;2024-03-02T01:37:57;95174.50;;;4.75;95.88
85304;BME280;75708;47.930;13.782;2024-03-02T01:40:22;95153.38;;;4.64;95.83
85304;BME280;75708;47.930;13.782;2024-03-02T01:42:52;95182.09;;;4.83;96.14
85304;BME280;75708;47.930;13.782;2024-03-02T01:45:18;95170.75;;;5.00;94.27
85304;BME280;75708;47.930;13.782;2024-03-02T01:47:43;95177.25;;;4.80;95.44
85304;BME280;75708;47.930;13.782;2024-03-02T01:50:11;95164.53;;;4.66;95.96
85304;BME280;75708;47.930;13.782;2024-03-02T01:52:37;95174.53;;;4.64;95.77
85304;BME280;75708;47.930;13.782;2024-03-02T01:55:02;95180.97;;;4.68;95.67
85304;BME280;75708;47.930;13.782;2024-03-02T01:57:29;95177.50;;;4.67;96.74
85304;BME280;75708;47.930;13.782;2024-03-02T01:59:55;95149.72;;;4.53;96.35
85304;BME280;75708;47.930;13.782;2024-03-02T02:02:21;95167.06;;;4.61;96.37
85304;BME280;75708;47.930;13.782;2024-03-02T02:04:47;95174.53;;;4.64;96.40
85304;BME280;75708;47.930;13.782;2024-03-02T02:07:12;95163.38;;;4.62;96.37
85304;BME280;75708;47.930;13.782;2024-03-02T02:09:41;95161.19;;;4.59;96.56
85304;BME280;75708;47.930;13.782;2024-03-02T02:12:06;95142.59;;;4.42;96.83
85304;BME280;75708;47.930;13.782;2024-03-02T02:14:33;95164.41;;;4.61;96.26
85304;BME280;75708;47.930;13.782;2024-03-02T02:16:59;95166.25;;;4.60;96.44
85304;BME280;75708;47.930;13.782;2024-03-02T02:19:24;95155.94;;;4.47;96.20
85304;BME280;75708;47.930;13.782;2024-03-02T02:21:50;95157.78;;;4.46;96.54
85304;BME280;75708;47.930;13.782;2024-03-02T02:24:15;95163.97;;;4.52;96.55
85304;BME280;75708;47.930;13.782;2024-03-02T02:26:41;95162.94;;;4.53;96.54
85304;BME280;75708;47.930;13.782;2024-03-02T02:29:06;95162.13;;;4.52;97.37
85304;BME280;75708;47.930;13.782;2024-03-02T02:31:41;95130.78;;;4.33;96.44
85304;BME280;75708;47.930;13.782;2024-03-02T02:34:07;95141.81;;;4.41;96.87
85304;BME280;75708;47.930;13.782;2024-03-02T02:36:37;95149.38;;;4.49;96.99
85304;BME280;75708;47.930;13.782;2024-03-02T02:39:04;95153.63;;;4.50;96.95
85304;BME280;75708;47.930;13.782;2024-03-02T02:41:32;95153.63;;;4.50;97.06
85304;BME280;75708;47.930;13.782;2024-03-02T02:43:57;95150.63;;;4.59;97.04
85304;BME280;75708;47.930;13.782;2024-03-02T02:46:23;95154.28;;;4.58;96.79
85304;BME280;75708;47.930;13.782;2024-03-02T02:48:48;95149.25;;;4.56;97.29
85304;BME280;75708;47.930;13.782;2024-03-02T02:51:14;95138.09;;;4.54;96.42
85304;BME280;75708;47.930;13.782;2024-03-02T02:53:40;95140.31;;;4.57;97.30
85304;BME280;75708;47.930;13.782;2024-03-02T02:56:09;95143.25;;;4.61;96.83
85304;BME280;75708;47.930;13.782;2024-03-02T02:58:34;95126.50;;;4.55;97.19
85304;BME280;75708;47.930;13.782;2024-03-02T03:01:01;95134.44;;;4.55;96.91
85304;BME280;75708;47.930;13.782;2024-03-02T03:03:26;95118.13;;;4.46;96.84
85304;BME280;75708;47.930;13.782;2024-03-02T03:05:52;95137.50;;;4.64;96.64
85304;BME280;75708;47.930;13.782;2024-03-02T03:08:17;95142.31;;;4.67;96.96
85304;BME280;75708;47.930;13.782;2024-03-02T03:10:43;95114.63;;;4.58;96.24
85304;BME280;75708;47.930;13.782;2024-03-02T03:13:08;95129.59;;;4.92;94.43
85304;BME280;75708;47.930;13.782;2024-03-02T03:15:37;95132.66;;;4.72;95.52
85304;BME280;75708;47.930;13.782;2024-03-02T03:18:05;95139.78;;;4.72;95.78
85304;BME280;75708;47.930;13.782;2024-03-02T03:20:33;95130.94;;;4.66;95.84
85304;BME280;75708;47.930;13.782;2024-03-02T03:22:59;95132.53;;;4.67;96.73
85304;BME280;75708;47.930;13.782;2024-03-02T03:25:25;95132.53;;;4.67;95.93
85304;BME280;75708;47.930;13.782;2024-03-02T03:27:51;95121.84;;;4.74;96.26
85304;BME280;75708;47.930;13.782;2024-03-02T03:30:19;95130.69;;;4.68;96.37
85304;BME280;75708;47.930;13.782;2024-03-02T03:32:44;95122.44;;;4.64;96.63
85304;BME280;75708;47.930;13.782;2024-03-02T03:35:10;95129.44;;;4.70;96.78
85304;BME280;75708;47.930;13.782;2024-03-02T03:37:37;95131.03;;;4.71;96.08
85304;BME280;75708;47.930;13.782;2024-03-02T03:40:03;95135.06;;;4.74;95.87
85304;BME280;75708;47.930;13.782;2024-03-02T03:42:35;95133.22;;;4.74;96.89
85304;BME280;75708;47.930;13.782;2024-03-02T03:45:01;95116.44;;;4.69;96.18
85304;BME280;75708;47.930;13.782;2024-03-02T03:47:26;95111.81;;;4.76;95.91
85304;BME280;75708;47.930;13.782;2024-03-02T03:49:52;95132.59;;;4.84;95.61
85304;BME280;75708;47.930;13.782;2024-03-02T03:52:17;95119.28;;;4.79;95.17
85304;BME280;75708;47.930;13.782;2024-03-02T03:54:43;95103.44;;;4.67;96.14
85304;BME280;75708;47.930;13.782;2024-03-02T03:57:09;95126.66;;;4.77;95.68
85304;BME280;75708;47.930;13.782;2024-03-02T03:59:35;95117.16;;;4.92;95.09
85304;BME280;75708;47.930;13.782;2024-03-02T04:02:03;95114.66;;;4.86;95.77
85304;BME280;75708;47.930;13.782;2024-03-02T04:04:28;95117.44;;;4.79;95.98
85304;BME280;75708;47.930;13.782;2024-03-02T04:06:54;95124.34;;;4.80;96.27
85304;BME280;75708;47.930;13.782;2024-03-02T04:09:19;95120.47;;;4.71;97.00
85304;BME280;75708;47.930;13.782;2024-03-02T04:11:45;95119.66;;;4.71;96.57
85304;BME280;75708;47.930;13.782;2024-03-02T04:14:11;95116.56;;;4.74;96.80
85304;BME280;75708;47.930;13.782;2024-03-02T04:16:38;95114.44;;;4.76;96.80
85304;BME280;75708;47.930;13.782;2024-03-02T04:19:03;95126.03;;;4.86;96.72
85304;BME280;75708;47.930;13.782;2024-03-02T04:21:29;95122.94;;;4.89;97.10
85304;BME280;75708;47.930;13.782;2024-03-02T04:23:54;95116.38;;;4.92;97.83
85304;BME280;75708;47.930;13.782;2024-03-02T04:26:24;95115.47;;;4.86;97.38
85304;BME280;75708;47.930;13.782;2024-03-02T04:28:50;95124.66;;;4.84;97.54
85304;BME280;75708;47.930;13.782;2024-03-02T04:31:16;95118.03;;;4.81;97.61
85304;BME280;75708;47.930;13.782;2024-03-02T04:33:42;95116.41;;;4.80;97.76
85304;BME280;75708;47.930;13.782;2024-03-02T04:36:07;95117.06;;;4.87;97.99
85304;BME280;75708;47.930;13.782;2024-03-02T04:38:35;95113.75;;;4.80;97.45
85304;BME280;75708;47.930;13.782;2024-03-02T04:41:00;95119.19;;;4.74;97.81
85304;BME280;75708;47.930;13.782;2024-03-02T04:43:26;95113.22;;;4.67;97.85
85304;BME280;75708;47.930;13.782;2024-03-02T04:45:51;95116.41;;;4.80;97.42
85304;BME280;75708;47.930;13.782;2024-03-02T04:48:17;95123.91;;;4.72;98.04
85304;BME280;75708;47.930;13.782;2024-03-02T04:50:42;95121.13;;;4.78;98.81
85304;BME280;75708;47.930;13.782;2024-03-02T04:53:08;95107.81;;;4.73;98.40
85304;BME280;75708;47.930;13.782;2024-03-02T04:55:33;95106.28;;;4.77;97.62
85304;BME280;75708;47.930;13.782;2024-03-02T04:57:59;95114.59;;;4.69;98.33
85304;BME280;75708;47.930;13.782;2024-03-02T05:00:24;95122.31;;;4.71;98.71
85304;BME280;75708;47.930;13.782;2024-03-02T05:02:50;95115.06;;;4.66;98.50
85304;BME280;75708;47.930;13.782;2024-03-02T05:05:16;95101.53;;;4.63;98.90
85304;BME280;75708;47.930;13.782;2024-03-02T05:07:42;95111.16;;;4.69;98.31
85304;BME280;75708;47.930;13.782;2024-03-02T05:10:09;95109.78;;;4.66;98.62
85304;BME280;75708;47.930;13.782;2024-03-02T05:12:35;95118.06;;;4.70;98.34
85304;BME280;75708;47.930;13.782;2024-03-02T05:15:01;95109.69;;;4.61;98.58
85304;BME280;75708;47.930;13.782;2024-03-02T05:17:27;95118.19;;;4.63;99.04
85304;BME280;75708;47.930;13.782;2024-03-02T05:19:52;95115.44;;;4.58;98.62
85304;BME280;75708;47.930;13.782;2024-03-02T05:22:18;95096.59;;;4.54;99.35
85304;BME280;75708;47.930;13.782;2024-03-02T05:24:43;95104.06;;;4.58;99.23
85304;BME280;75708;47.930;13.782;2024-03-02T05:27:09;95120.25;;;4.73;99.07
85304;BME280;75708;47.930;13.782;2024-03-02T05:29:34;95121.41;;;4.65;99.38
85304;BME280;75708;47.930;13.782;2024-03-02T05:32:00;95126.72;;;4.65;98.88
85304;BME280;75708;47.930;13.782;2024-03-02T05:34:25;95128.28;;;4.66;99.20
85304;BME280;75708;47.930;13.782;2024-03-02T05:36:51;95129.22;;;4.72;98.75
85304;BME280;75708;47.930;13.782;2024-03-02T05:39:16;95130.63;;;4.63;99.31
85304;BME280;75708;47.930;13.782;2024-03-02T05:41:42;95134.34;;;4.78;98.00
85304;BME280;75708;47.930;13.782;2024-03-02T05:44:07;95128.06;;;4.68;98.41
85304;BME280;75708;47.930;13.782;2024-03-02T05:46:33;95130.50;;;4.58;98.71
85304;BME280;75708;47.930;13.782;2024-03-02T05:48:59;95140.22;;;4.80;98.57
85304;BME280;75708;47.930;13.782;2024-03-02T05:51:25;95130.63;;;4.63;98.70
85304;BME280;75708;47.930;13.782;2024-03-02T05:53:51;95136.06;;;4.44;98.56
85304;BME280;75708;47.930;13.782;2024-03-02T05:56:16;95138.34;;;4.52;98.43
85304;BME280;75708;47.930;13.782;2024-03-02T05:58:42;95139.97;;;4.42;99.42
85304;BME280;75708;47.930;13.782;2024-03-02T06:01:26;95150.09;;;4.45;99.08
85304;BME280;75708;47.930;13.782;2024-03-02T06:03:57;95142.38;;;4.43;98.97
85304;BME280;75708;47.930;13.782;2024-03-02T06:06:24;95135.38;;;4.37;99.30
85304;BME280;75708;47.930;13.782;2024-03-02T06:08:50;95140.09;;;4.35;99.24
85304;BME280;75708;47.930;13.782;2024-03-02T06:11:16;95146.13;;;4.59;99.15
85304;BME280;75708;47.930;13.782;2024-03-02T06:13:41;95141.88;;;4.58;98.33
85304;BME280;75708;47.930;13.782;2024-03-02T06:16:07;95142.72;;;4.47;98.06
85304;BME280;75708;47.930;13.782;2024-03-02T06:18:34;95153.53;;;4.45;98.28
85304;BME280;75708;47.930;13.782;2024-03-02T06:20:59;95167.88;;;4.61;98.81
85304;BME280;75708;47.930;13.782;2024-03-02T06:23:26;95170.97;;;4.58;98.37
85304;BME280;75708;47.930;13.782;2024-03-02T06:25:52;95161.53;;;4.62;98.62
85304;BME280;75708;47.930;13.782;2024-03-02T06:28:18;95169.94;;;4.59;98.05
85304;BME280;75708;47.930;13.782;2024-03-02T06:30:43;95171.41;;;4.67;97.91
85304;BME280;75708;47.930;13.782;2024-03-02T06:33:09;95176.38;;;4.75;97.96
85304;BME280;75708;47.930;13.782;2024-03-02T06:35:35;95159.19;;;4.77;97.36
85304;BME280;75708;47.930;13.782;2024-03-02T06:38:01;95183.50;;;4.74;96.93
85304;BME280;75708;47.930;13.782;2024-03-02T06:40:26;95166.03;;;4.62;97.93
85304;BME280;75708;47.930;13.782;2024-03-02T06:42:52;95186.72;;;4.65;97.96
85304;BME280;75708;47.930;13.782;2024-03-02T06:45:17;95192.09;;;4.81;98.30
85304;BME280;75708;47.930;13.782;2024-03-02T06:47:43;95185.84;;;4.87;97.42
85304;BME280;75708;47.930;13.782;2024-03-02T06:50:09;95190.91;;;5.01;97.35
85304;BME280;75708;47.930;13.782;2024-03-02T06:52:35;95193.19;;;4.97;97.74
85304;BME280;75708;47.930;13.782;2024-03-02T06:55:01;95194.00;;;4.98;97.54
85304;BME280;75708;47.930;13.782;2024-03-02T06:57:26;95205.84;;;4.95;97.58
85304;BME280;75708;47.930;13.782;2024-03-02T06:59:52;95218.16;;;5.01;97.72
85304;BME280;75708;47.930;13.782;2024-03-02T07:02:20;95222.03;;;5.10;97.63
85304;BME280;75708;47.930;13.782;2024-03-02T07:04:46;95201.78;;;5.04;97.80
85304;BME280;75708;47.930;13.782;2024-03-02T07:07:12;95202.44;;;5.11;97.52
85304;BME280;75708;47.930;13.782;2024-03-02T07:09:38;95219.50;;;5.15;97.71
85304;BME280;75708;47.930;13.782;2024-03-02T07:12:03;95211.19;;;5.12;97.62
85304;BME280;75708;47.930;13.782;2024-03-02T07:14:29;95219.56;;;5.20;97.84
85304;BME280;75708;47.930;13.782;2024-03-02T07:17:13;95226.28;;;5.40;96.69
85304;BME280;75708;47.930;13.782;2024-03-02T07:19:39;95227.13;;;5.57;96.67
85304;BME280;75708;47.930;13.782;2024-03-02T07:22:08;95215.84;;;5.61;96.11
85304;BME280;75708;47.930;13.782;2024-03-02T07:24:43;95233.75;;;5.71;95.69
85304;BME280;75708;47.930;13.782;2024-03-02T07:27:12;95237.69;;;5.85;95.94
85304;BME280;75708;47.930;13.782;2024-03-02T07:29:39;95228.13;;;5.84;95.48
85304;BME280;75708;47.930;13.782;2024-03-02T07:32:06;95231.69;;;5.90;94.78
85304;BME280;75708;47.930;13.782;2024-03-02T07:34:32;95226.06;;;5.86;95.16
85304;BME280;75708;47.930;13.782;2024-03-02T07:36:57;95242.25;;;6.01;94.51
85304;BME280;75708;47.930;13.782;2024-03-02T07:39:23;95253.25;;;5.93;94.41
85304;BME280;75708;47.930;13.782;2024-03-02T07:41:49;95251.41;;;6.11;94.08
85304;BME280;75708;47.930;13.782;2024-03-02T07:44:15;95259.19;;;6.00;93.58
85304;BME280;75708;47.930;13.782;2024-03-02T07:46:41;95246.59;;;6.24;92.75
85304;BME280;75708;47.930;13.782;2024-03-02T07:49:08;95262.34;;;6.31;91.83
85304;BME280;75708;47.930;13.782;2024-03-02T07:51:33;95257.19;;;6.41;91.99
85304;BME280;75708;47.930;13.782;2024-03-02T07:53:59;95265.69;;;6.43;91.29
85304;BME280;75708;47.930;13.782;2024-03-02T07:56:24;95257.66;;;6.38;91.27
85304;BME280;75708;47.930;13.782;2024-03-02T07:58:50;95257.09;;;6.36;90.47
85304;BME280;75708;47.930;13.782;2024-03-02T08:01:16;95272.84;;;6.59;90.59
85304;BME280;75708;47.930;13.782;2024-03-02T08:03:43;95277.41;;;6.64;91.19
85304;BME280;75708;47.930;13.782;2024-03-02T08:06:19;95272.03;;;6.42;92.33
85304;BME280;75708;47.930;13.782;2024-03-02T08:08:47;95285.31;;;6.59;91.68
85304;BME280;75708;47.930;13.782;2024-03-02T08:11:13;95262.72;;;6.56;91.33
85304;BME280;75708;47.930;13.782;2024-03-02T08:13:38;95275.22;;;6.77;89.84
85304;BME280;75708;47.930;13.782;2024-03-02T08:16:04;95290.91;;;6.79;89.94
85304;BME280;75708;47.930;13.782;2024-03-02T08:18:33;95281.31;;;6.78;89.95
85304;BME280;75708;47.930;13.782;2024-03-02T08:20:58;95287.78;;;7.04;88.79
85304;BME280;75708;47.930;13.782;2024-03-02T08:23:24;95281.19;;;7.06;89.19
85304;BME280;75708;47.930;13.782;2024-03-02T08:25:49;95278.25;;;7.03;88.80
85304;BME280;75708;47.930;13.782;2024-03-02T08:28:15;95281.03;;;6.96;88.78
85304;BME280;75708;47.930;13.782;2024-03-02T08:30:41;95284.66;;;7.29;87.53
85304;BME280;75708;47.930;13.782;2024-03-02T08:33:06;95280.88;;;7.25;86.34
85304;BME280;75708;47.930;13.782;2024-03-02T08:35:32;95261.59;;;7.12;85.56
85304;BME280;75708;47.930;13.782;2024-03-02T08:38:02;95235.16;;;7.44;84.93
85304;BME280;75708;47.930;13.782;2024-03-02T08:40:28;95278.34;;;7.83;84.84
85304;BME280;75708;47.930;13.782;2024-03-02T08:42:54;95275.78;;;7.67;83.77
85304;BME280;75708;47.930;13.782;2024-03-02T08:45:20;95276.00;;;7.87;82.96
85304;BME280;75708;47.930;13.782;2024-03-02T08:47:46;95266.28;;;7.49;83.55
85304;BME280;75708;47.930;13.782;2024-03-02T08:50:12;95282.00;;;7.50;83.30
85304;BME280;75708;47.930;13.782;2024-03-02T08:52:38;95271.44;;;7.55;83.88
85304;BME280;75708;47.930;13.782;2024-03-02T08:55:04;95272.84;;;7.63;82.00
85304;BME280;75708;47.930;13.782;2024-03-02T08:57:30;95273.84;;;7.84;81.38
85304;BME280;75708;47.930;13.782;2024-03-02T08:59:56;95265.16;;;7.93;79.01
85304;BME280;75708;47.930;13.782;2024-03-02T09:02:21;95259.34;;;7.97;78.30
85304;BME280;75708;47.930;13.782;2024-03-02T09:04:47;95264.81;;;7.85;78.70
85304;BME280;75708;47.930;13.782;2024-03-02T09:07:12;95265.34;;;8.14;79.18
85304;BME280;75708;47.930;13.782;2024-03-02T09:09:38;95272.63;;;8.23;79.56
85304;BME280;75708;47.930;13.782;2024-03-02T09:12:05;95265.34;;;8.46;79.88
85304;BME280;75708;47.930;13.782;2024-03-02T09:14:31;95273.41;;;8.98;78.34
85304;BME280;75708;47.930;13.782;2024-03-02T09:16:56;95266.28;;;9.09;76.30
85304;BME280;75708;47.930;13.782;2024-03-02T09:19:22;95260.25;;;9.23;73.82
85304;BME280;75708;47.930;13.782;2024-03-02T09:21:47;95264.69;;;9.75;72.60
85304;BME280;75708;47.930;13.782;2024-03-02T09:24:13;95274.75;;;9.53;71.91
85304;BME280;75708;47.930;13.782;2024-03-02T09:26:38;95271.06;;;9.69;69.47
85304;BME280;75708;47.930;13.782;2024-03-02T09:29:04;95272.41;;;9.04;71.54
85304;BME280;75708;47.930;13.782;2024-03-02T09:31:29;95278.16;;;8.86;73.79
85304;BME280;75708;47.930;13.782;2024-03-02T09:33:55;95256.25;;;9.26;73.34
85304;BME280;75708;47.930;13.782;2024-03-02T09:36:22;95267.56;;;9.53;71.17
85304;BME280;75708;47.930;13.782;2024-03-02T09:38:48;95241.50;;;9.80;70.46
85304;BME280;75708;47.930;13.782;2024-03-02T09:41:14;95265.31;;;10.78;65.86
85304;BME280;75708;47.930;13.782;2024-03-02T09:43:40;95268.28;;;10.36;66.68
85304;BME280;75708;47.930;13.782;2024-03-02T09:46:08;95259.91;;;11.04;64.31
85304;BME280;75708;47.930;13.782;2024-03-02T09:48:34;95261.00;;;10.82;65.29
85304;BME280;75708;47.930;13.782;2024-03-02T09:51:00;95263.97;;;10.81;65.44
85304;BME280;75708;47.930;13.782;2024-03-02T09:53:31;95256.16;;;11.00;64.19
85304;BME280;75708;47.930;13.782;2024-03-02T09:55:57;95259.28;;;9.55;67.35
85304;BME280;75708;47.930;13.782;2024-03-02T09:58:22;95256.53;;;10.37;65.67
85304;BME280;75708;47.930;13.782;2024-03-02T10:00:48;95256.66;;;11.22;62.46
85304;BME280;75708;47.930;13.782;2024-03-02T10:03:14;95242.34;;;10.67;64.56
85304;BME280;75708;47.930;13.782;2024-03-02T10:05:40;95246.63;;;10.63;65.13
85304;BME280;75708;47.930;13.782;2024-03-02T10:08:05;95241.31;;;12.02;60.07
85304;BME280;75708;47.930;13.782;2024-03-02T10:10:36;95245.13;;;11.91;60.39
85304;BME280;75708;47.930;13.782;2024-03-02T10:13:14;95233.50;;;12.05;59.87
85304;BME280;75708;47.930;13.782;2024-03-02T10:15:40;95239.34;;;12.18;60.04
85304;BME280;75708;47.930;13.782;2024-03-02T10:18:13;95216.28;;;16.14;49.02
85304;BME280;75708;47.930;13.782;2024-03-02T10:20:40;95208.94;;;16.95;48.79
85304;BME280;75708;47.930;13.782;2024-03-02T10:23:13;95210.56;;;18.35;45.40
85304;BME280;75708;47.930;13.782;2024-03-02T10:25:39;95204.97;;;18.40;41.96
85304;BME280;75708;47.930;13.782;2024-03-02T10:28:05;95221.63;;;16.50;44.41
85304;BME280;75708;47.930;13.782;2024-03-02T10:30:31;95211.66;;;17.43;44.76
85304;BME280;75708;47.930;13.782;2024-03-02T10:32:57;95212.13;;;19.26;38.07
85304;BME280;75708;47.930;13.782;2024-03-02T10:35:23;95203.59;;;20.12;38.05
85304;BME280;75708;47.930;13.782;2024-03-02T10:37:49;95197.06;;;19.84;37.51
85304;BME280;75708;47.930;13.782;2024-03-02T10:40:15;95200.88;;;18.26;41.34
85304;BME280;75708;47.930;13.782;2024-03-02T10:42:42;95193.53;;;17.83;41.20
85304;BME280;75708;47.930;13.782;2024-03-02T10:45:09;95188.75;;;18.40;40.56
85304;BME280;75708;47.930;13.782;2024-03-02T10:47:38;95193.25;;;19.09;40.01
85304;BME280;75708;47.930;13.782;2024-03-02T10:50:04;95186.13;;;20.43;36.88
85304;BME280;75708;47.930;13.782;2024-03-02T10:52:37;95185.66;;;19.78;37.41
85304;BME280;75708;47.930;13.782;2024-03-02T10:55:03;95175.97;;;19.89;36.63
85304;BME280;75708;47.930;13.782;2024-03-02T10:57:52;95167.59;;;19.53;37.03
85304;BME280;75708;47.930;13.782;2024-03-02T11:00:24;95158.75;;;20.36;37.55
85304;BME280;75708;47.930;13.782;2024-03-02T11:03:04;95162.44;;;19.31;38.37
85304;BME280;75708;47.930;13.782;2024-03-02T11:05:37;95148.47;;;19.58;38.75
85304;BME280;75708;47.930;13.782;2024-03-02T11:08:08;95133.88;;;21.36;35.46
85304;BME280;75708;47.930;13.782;2024-03-02T11:10:36;95146.28;;;20.55;35.99
85304;BME280;75708;47.930;13.782;2024-03-02T11:13:05;95129.00;;;21.29;34.06
85304;BME280;75708;47.930;13.782;2024-03-02T11:15:34;95133.59;;;20.47;36.57
85304;BME280;75708;47.930;13.782;2024-03-02T11:18:04;95131.91;;;21.12;33.39
85304;BME280;75708;47.930;13.782;2024-03-02T11:20:38;95130.72;;;20.64;34.75
85304;BME280;75708;47.930;13.782;2024-03-02T11:23:08;95117.31;;;21.04;35.40
85304;BME280;75708;47.930;13.782;2024-03-02T11:25:34;95124.34;;;19.65;36.95
85304;BME280;75708;47.930;13.782;2024-03-02T11:28:05;95119.47;;;20.21;36.71
85304;BME280;75708;47.930;13.782;2024-03-02T11:33:02;95121.63;;;20.48;37.03
85304;BME280;75708;47.930;13.782;2024-03-02T11:35:33;95105.84;;;22.52;33.23
85304;BME280;75708;47.930;13.782;2024-03-02T11:37:58;95105.00;;;22.64;33.59
85304;BME280;75708;47.930;13.782;2024-03-02T11:40:28;95100.41;;;24.32;30.61
85304;BME280;75708;47.930;13.782;2024-03-02T11:42:54;95100.13;;;23.63;31.51
85304;BME280;75708;47.930;13.782;2024-03-02T11:45:24;95097.06;;;23.18;31.91
85304;BME280;75708;47.930;13.782;2024-03-02T11:47:51;95087.75;;;24.05;30.49
85304;BME280;75708;47.930;13.782;2024-03-02T11:50:34;95083.69;;;24.33;29.43
85304;BME280;75708;47.930;13.782;2024-03-02T11:53:03;95081.66;;;22.78;32.43
85304;BME280;75708;47.930;13.782;2024-03-02T11:55:36;95083.88;;;22.17;33.67
85304;BME280;75708;47.930;13.782;2024-03-02T11:58:05;95088.19;;;21.78;34.55
85304;BME280;75708;47.930;13.782;2024-03-02T12:00:31;95090.91;;;20.56;37.40
85304;BME280;75708;47.930;13.782;2024-03-02T12:03:01;95092.66;;;21.58;36.01
85304;BME280;75708;47.930;13.782;2024-03-02T12:05:28;95080.03;;;22.18;34.97
85304;BME280;75708;47.930;13.782;2024-03-02T12:08:00;95080.16;;;23.59;32.55
85304;BME280;75708;47.930;13.782;2024-03-02T12:10:26;95083.06;;;23.35;32.57
85304;BME280;75708;47.930;13.782;2024-03-02T12:13:03;95087.38;;;22.89;33.47
85304;BME280;75708;47.930;13.782;2024-03-02T12:15:31;95077.16;;;23.65;31.98
85304;BME280;75708;47.930;13.782;2024-03-02T12:17:58;95084.19;;;22.71;32.81
85304;BME280;75708;47.930;13.782;2024-03-02T12:20:24;95088.84;;;21.23;36.01
85304;BME280;75708;47.930;13.782;2024-03-02T12:22:55;95081.41;;;22.24;34.42
85304;BME280;75708;47.930;13.782;2024-03-02T12:25:22;95082.13;;;23.12;32.70
85304;BME280;75708;47.930;13.782;2024-03-02T12:27:52;95083.09;;;22.44;34.37
85304;BME280;75708;47.930;13.782;2024-03-02T12:30:19;95070.84;;;23.80;31.57
85304;BME280;75708;47.930;13.782;2024-03-02T12:32:45;95072.50;;;22.71;33.58
85304;BME280;75708;47.930;13.782;2024-03-02T12:35:11;95066.22;;;23.14;33.05
85304;BME280;75708;47.930;13.782;2024-03-02T12:37:44;95074.44;;;20.98;35.98
85304;BME280;75708;47.930;13.782;2024-03-02T12:40:14;95077.44;;;20.48;36.82
85304;BME280;75708;47.930;13.782;2024-03-02T12:42:40;95060.69;;;21.80;35.88
85304;BME280;75708;47.930;13.782;2024-03-02T12:45:09;95065.38;;;21.43;35.46
85304;BME280;75708;47.930;13.782;2024-03-02T12:47:35;95061.47;;;22.36;34.60
85304;BME280;75708;47.930;13.782;2024-03-02T12:50:02;95052.47;;;22.63;34.75
85304;BME280;75708;47.930;13.782;2024-03-02T12:52:29;95044.69;;;22.18;34.21
85304;BME280;75708;47.930;13.782;2024-03-02T12:54:54;95049.78;;;22.79;34.17
85304;BME280;75708;47.930;13.782;2024-03-02T12:57:27;95052.03;;;22.61;33.33
85304;BME280;75708;47.930;13.782;2024-03-02T13:00:03;95052.44;;;22.04;35.70